createdAt,value
2017-11-26T00:01:26.251Z,26.27
2017-11-26T00:03:53.724Z,30.52
2017-11-26T00:06:21.303Z,26.10
2017-11-26T00:08:48.775Z,20.37
2017-11-26T00:11:17.025Z,31.77
2017-11-26T00:13:44.537Z,29.33
2017-11-26T00:16:12.049Z,23.62
2017-11-26T00:18:39.519Z,26.10
2017-11-26T00:21:07.754Z,22.83
2017-11-26T00:23:35.586Z,23.35
2017-11-26T00:26:03.056Z,25.20
2017-11-26T00:28:30.674Z,25.98
2017-11-26T00:30:58.219Z,27.17
2017-11-26T00:33:25.688Z,24.25
2017-11-26T00:35:53.951Z,34.13
2017-11-26T00:38:21.419Z,26.55
2017-11-26T00:40:49.650Z,21.48
2017-11-26T00:43:17.115Z,27.90
2017-11-26T00:45:44.720Z,25.70
2017-11-26T00:48:12.292Z,27.05
2017-11-26T00:50:39.819Z,27.87
2017-11-26T00:53:07.287Z,25.12
2017-11-26T00:55:35.532Z,25.77
2017-11-26T00:58:03.008Z,26.40
2017-11-26T01:00:30.567Z,28.87
2017-11-26T01:02:58.114Z,23.52
2017-11-26T01:05:25.691Z,25.12
2017-11-26T01:07:53.922Z,29.15
2017-11-26T01:10:21.388Z,28.40
2017-11-26T01:12:49.000Z,24.00
2017-11-26T01:15:16.454Z,28.40
2017-11-26T01:20:17.791Z,32.80
2017-11-26T01:22:45.264Z,28.25
2017-11-26T01:25:13.578Z,24.08
2017-11-26T01:27:41.091Z,26.52
2017-11-26T01:30:09.339Z,27.42
2017-11-26T01:32:36.816Z,32.47
2017-11-26T01:35:04.275Z,29.55
2017-11-26T01:37:31.750Z,32.38
2017-11-26T01:39:59.982Z,29.77
2017-11-26T01:42:27.446Z,26.15
2017-11-26T01:44:54.906Z,30.42
2017-11-26T01:47:22.391Z,34.97
2017-11-26T01:49:50.649Z,32.75
2017-11-26T01:52:18.922Z,35.22
2017-11-26T01:54:46.382Z,35.10
2017-11-26T01:57:13.861Z,29.42
2017-11-26T01:59:42.113Z,34.05
2017-11-26T02:02:09.671Z,25.65
2017-11-26T02:04:37.234Z,32.50
2017-11-26T02:07:05.503Z,33.85
2017-11-26T02:09:33.018Z,32.05
2017-11-26T02:12:00.542Z,44.78
2017-11-26T02:14:28.774Z,21.40
2017-11-26T02:16:56.243Z,28.90
2017-11-26T02:19:23.815Z,32.42
2017-11-26T02:21:51.287Z,27.05
2017-11-26T02:24:19.527Z,25.12
2017-11-26T02:26:47.120Z,29.92
2017-11-26T02:29:14.667Z,29.25
2017-11-26T02:31:54.762Z,34.28
2017-11-26T02:34:34.252Z,31.70
2017-11-26T02:37:01.724Z,28.90
2017-11-26T02:39:29.999Z,36.28
2017-11-26T02:41:58.237Z,26.62
2017-11-26T02:44:25.715Z,30.75
2017-11-26T02:46:53.230Z,29.08
2017-11-26T02:49:20.713Z,32.80
2017-11-26T02:51:48.188Z,28.33
2017-11-26T02:54:15.812Z,39.28
2017-11-26T02:56:43.342Z,30.10
2017-11-26T02:59:10.866Z,31.05
2017-11-26T03:01:38.336Z,32.47
2017-11-26T03:04:06.577Z,34.35
2017-11-26T03:06:34.108Z,36.90
2017-11-26T03:09:01.620Z,30.23
2017-11-26T03:11:29.091Z,52.08
2017-11-26T03:13:57.335Z,29.50
2017-11-26T03:16:24.906Z,34.35
2017-11-26T03:18:52.367Z,36.00
2017-11-26T03:21:19.913Z,35.03
2017-11-26T03:23:47.387Z,37.45
2017-11-26T03:26:15.673Z,40.12
2017-11-26T03:28:43.913Z,35.13
2017-11-26T03:31:11.376Z,34.53
2017-11-26T03:33:38.843Z,36.28
2017-11-26T03:36:07.115Z,32.55
2017-11-26T03:38:34.582Z,32.88
2017-11-26T03:41:02.823Z,35.17
2017-11-26T03:43:30.396Z,39.63
2017-11-26T03:45:57.980Z,31.75
2017-11-26T03:48:26.214Z,42.35
2017-11-26T03:50:53.746Z,33.03
2017-11-26T03:53:21.207Z,35.78
2017-11-26T03:55:48.706Z,35.72
2017-11-26T03:58:16.266Z,31.87
2017-11-26T04:00:43.726Z,32.88
2017-11-26T04:03:11.189Z,30.95
2017-11-26T04:05:39.457Z,34.58
2017-11-26T04:08:06.922Z,36.80
2017-11-26T04:10:35.211Z,33.92
2017-11-26T04:13:03.518Z,28.38
2017-11-26T04:15:30.990Z,32.08
2017-11-26T04:17:58.492Z,32.90
2017-11-26T04:20:26.747Z,32.83
2017-11-26T04:22:54.214Z,34.97
2017-11-26T04:25:21.683Z,38.85
2017-11-26T04:27:49.945Z,33.17
2017-11-26T04:30:17.411Z,33.65
2017-11-26T04:32:45.638Z,26.55
2017-11-26T04:35:13.185Z,35.72
2017-11-26T04:37:40.642Z,26.67
2017-11-26T04:40:08.139Z,27.77
2017-11-26T04:42:35.597Z,36.45
2017-11-26T04:45:04.429Z,30.98
2017-11-26T04:47:31.887Z,28.45
2017-11-26T04:49:59.399Z,30.58
2017-11-26T04:52:26.958Z,29.15
2017-11-26T04:54:54.513Z,26.95
2017-11-26T04:57:21.975Z,29.65
2017-11-26T04:59:49.435Z,31.25
2017-11-26T05:02:16.997Z,28.87
2017-11-26T05:04:44.464Z,24.80
2017-11-26T05:07:11.936Z,23.75
2017-11-26T05:09:40.174Z,32.38
2017-11-26T05:12:07.638Z,26.08
2017-11-26T05:14:36.619Z,23.38
2017-11-26T05:17:04.095Z,26.85
2017-11-26T05:19:31.643Z,24.30
2017-11-26T05:21:59.208Z,31.45
2017-11-26T05:24:26.767Z,28.27
2017-11-26T05:26:54.222Z,31.55
2017-11-26T05:29:22.455Z,27.75
2017-11-26T05:31:49.935Z,32.85
2017-11-26T05:34:17.411Z,31.70
2017-11-26T05:36:44.875Z,30.37
2017-11-26T05:39:12.425Z,25.77
2017-11-26T05:41:39.983Z,31.80
2017-11-26T05:44:07.443Z,27.92
2017-11-26T05:46:34.953Z,22.83
2017-11-26T05:49:02.427Z,23.05
2017-11-26T05:51:29.976Z,25.00
2017-11-26T05:53:57.432Z,23.80
2017-11-26T05:56:24.926Z,28.42
2017-11-26T05:58:52.403Z,25.67
2017-11-26T06:01:20.664Z,30.83
2017-11-26T06:03:48.151Z,27.70
2017-11-26T06:06:15.743Z,26.27
2017-11-26T06:08:43.230Z,27.65
2017-11-26T06:11:10.848Z,29.90
2017-11-26T06:13:38.316Z,30.12
2017-11-26T06:16:05.786Z,32.15
2017-11-26T06:18:33.424Z,45.38
2017-11-26T06:21:00.888Z,34.55
2017-11-26T06:23:28.383Z,36.13
2017-11-26T06:25:55.946Z,28.42
2017-11-26T06:28:23.493Z,35.88
2017-11-26T06:30:50.960Z,31.70
2017-11-26T06:33:18.419Z,30.85
2017-11-26T06:35:45.891Z,32.03
2017-11-26T06:38:14.131Z,30.55
2017-11-26T06:40:41.603Z,29.37
2017-11-26T06:43:09.840Z,35.60
2017-11-26T06:45:37.311Z,35.20
2017-11-26T06:48:04.774Z,28.42
2017-11-26T06:50:32.245Z,31.00
2017-11-26T06:52:59.859Z,32.38
2017-11-26T06:55:27.326Z,31.27
2017-11-26T06:57:54.792Z,35.78
2017-11-26T07:00:22.333Z,30.58
2017-11-26T07:02:49.835Z,37.55
2017-11-26T07:05:17.293Z,29.90
2017-11-26T07:07:45.530Z,29.35
2017-11-26T07:10:13.017Z,30.35
2017-11-26T07:12:40.483Z,28.65
2017-11-26T07:15:07.950Z,29.10
2017-11-26T07:17:36.193Z,29.20
2017-11-26T07:20:03.655Z,30.60
2017-11-26T07:22:31.238Z,33.63
2017-11-26T07:24:58.789Z,29.05
2017-11-26T07:27:26.348Z,27.85
2017-11-26T07:29:53.825Z,32.42
2017-11-26T07:32:22.066Z,29.17
2017-11-26T07:34:49.544Z,36.45
2017-11-26T07:37:17.011Z,27.90
2017-11-26T07:39:45.279Z,33.25
2017-11-26T07:42:12.759Z,29.95
2017-11-26T07:44:40.222Z,34.22
2017-11-26T07:47:07.717Z,27.87
2017-11-26T07:49:35.193Z,31.27
2017-11-26T07:52:02.655Z,29.70
2017-11-26T07:54:30.228Z,29.85
2017-11-26T07:56:58.471Z,28.77
2017-11-26T07:59:25.953Z,28.30
2017-11-26T08:01:54.255Z,22.40
2017-11-26T08:04:21.792Z,36.05
2017-11-26T08:06:49.250Z,22.52
2017-11-26T08:09:17.496Z,25.20
2017-11-26T08:11:45.231Z,24.02
2017-11-26T08:14:12.834Z,22.90
2017-11-26T08:16:40.354Z,21.60
2017-11-26T08:19:07.821Z,22.73
2017-11-26T08:21:35.291Z,22.80
2017-11-26T08:24:02.759Z,26.67
2017-11-26T08:26:30.266Z,30.42
2017-11-26T08:28:57.773Z,25.12
2017-11-26T08:31:25.252Z,26.17
2017-11-26T08:33:53.513Z,23.83
2017-11-26T08:36:20.992Z,25.70
2017-11-26T08:38:49.350Z,23.70
2017-11-26T08:41:16.822Z,25.83
2017-11-26T08:43:45.047Z,21.98
2017-11-26T08:46:12.519Z,22.62
2017-11-26T08:48:39.985Z,19.87
2017-11-26T08:51:07.465Z,20.05
2017-11-26T08:53:36.096Z,18.67
2017-11-26T08:56:03.561Z,19.25
2017-11-26T08:58:31.021Z,24.40
2017-11-26T09:00:58.489Z,18.70
2017-11-26T09:03:25.950Z,17.90
2017-11-26T09:05:53.418Z,19.92
2017-11-26T09:11:22.931Z,20.67
2017-11-26T09:13:50.395Z,19.98
2017-11-26T09:16:17.872Z,17.87
2017-11-26T09:18:46.103Z,14.05
2017-11-26T09:21:13.566Z,19.10
2017-11-26T09:23:41.174Z,18.52
2017-11-26T09:26:08.699Z,24.87
2017-11-26T09:28:36.639Z,16.92
2017-11-26T09:31:04.922Z,13.68
2017-11-26T09:33:32.481Z,19.50
2017-11-26T09:35:59.942Z,15.93
2017-11-26T09:38:27.403Z,19.40
2017-11-26T09:40:55.154Z,13.00
2017-11-26T09:43:23.436Z,19.02
2017-11-26T09:45:50.902Z,19.92
2017-11-26T09:48:18.959Z,18.95
2017-11-26T09:50:46.491Z,18.27
2017-11-26T09:53:13.958Z,15.00
2017-11-26T09:55:41.406Z,16.73
2017-11-26T09:58:08.872Z,15.27
2017-11-26T10:00:36.345Z,12.30
2017-11-26T10:03:03.809Z,15.82
2017-11-26T10:05:31.269Z,20.23
2017-11-26T10:07:59.302Z,25.70
2017-11-26T10:10:26.823Z,15.68
2017-11-26T10:12:55.055Z,16.15
2017-11-26T10:15:22.524Z,23.60
2017-11-26T10:17:50.055Z,17.12
2017-11-26T10:20:17.915Z,16.08
2017-11-26T10:22:45.413Z,15.82
2017-11-26T10:25:12.968Z,12.50
2017-11-26T10:27:40.645Z,14.45
2017-11-26T10:30:08.117Z,10.90
2017-11-26T10:32:36.339Z,11.05
2017-11-26T10:35:03.823Z,12.20
2017-11-26T10:37:31.378Z,9.52
2017-11-26T10:39:58.847Z,10.13
2017-11-26T10:42:26.402Z,11.40
2017-11-26T10:44:53.967Z,8.77
2017-11-26T10:47:21.423Z,16.67
2017-11-26T10:49:49.679Z,8.10
2017-11-26T10:52:17.136Z,15.13
2017-11-26T10:54:44.610Z,10.40
2017-11-26T10:57:12.079Z,9.90
2017-11-26T10:59:40.303Z,12.40
2017-11-26T11:02:07.799Z,12.23
2017-11-26T11:04:35.366Z,9.75
2017-11-26T11:07:03.632Z,12.07
2017-11-26T11:09:31.195Z,17.40
2017-11-26T11:11:58.701Z,15.40
2017-11-26T11:14:26.159Z,17.83
2017-11-26T11:16:53.639Z,13.43
2017-11-26T11:19:21.095Z,9.82
2017-11-26T11:21:48.627Z,9.15
2017-11-26T11:24:16.079Z,10.93
2017-11-26T11:26:43.548Z,16.70
2017-11-26T11:29:11.026Z,13.85
2017-11-26T11:31:38.487Z,7.82
2017-11-26T11:34:05.954Z,9.48
2017-11-26T11:36:33.413Z,12.55
2017-11-26T11:39:00.971Z,9.13
2017-11-26T11:41:29.992Z,11.75
2017-11-26T11:43:58.210Z,9.35
2017-11-26T11:46:25.667Z,8.70
2017-11-26T11:48:53.132Z,11.15
2017-11-26T11:51:20.615Z,8.85
2017-11-26T11:53:48.154Z,11.90
2017-11-26T11:56:15.605Z,8.20
2017-11-26T11:58:43.076Z,10.70
2017-11-26T12:01:10.536Z,10.60
2017-11-26T12:03:38.015Z,10.70
2017-11-26T12:06:06.253Z,10.02
2017-11-26T12:08:33.782Z,11.07
2017-11-26T12:11:01.251Z,7.87
2017-11-26T12:13:28.701Z,20.37
2017-11-26T12:15:56.159Z,10.07
2017-11-26T12:18:23.616Z,9.80
2017-11-26T12:20:51.090Z,10.88
2017-11-26T12:23:18.554Z,12.07
2017-11-26T12:25:46.127Z,8.85
2017-11-26T12:28:13.685Z,7.80
2017-11-26T12:30:41.152Z,10.65
2017-11-26T12:33:08.693Z,13.90
2017-11-26T12:35:36.160Z,9.63
2017-11-26T12:38:03.717Z,12.30
2017-11-26T12:40:31.183Z,6.87
2017-11-26T12:42:58.734Z,9.75
2017-11-26T12:45:26.223Z,8.45
2017-11-26T12:47:53.679Z,15.80
2017-11-26T12:50:21.138Z,11.00
2017-11-26T12:52:48.657Z,8.85
2017-11-26T12:55:16.115Z,15.20
2017-11-26T12:57:43.596Z,11.55
2017-11-26T13:00:11.822Z,8.73
2017-11-26T13:02:39.285Z,10.13
2017-11-26T13:05:06.738Z,7.68
2017-11-26T13:07:34.207Z,9.15
2017-11-26T13:10:01.671Z,10.88
2017-11-26T13:12:29.149Z,10.77
2017-11-26T13:14:57.382Z,12.02
2017-11-26T13:17:24.841Z,8.40
2017-11-26T13:19:52.306Z,9.05
2017-11-26T13:22:19.764Z,6.90
2017-11-26T13:24:47.211Z,5.85
2017-11-26T13:27:14.692Z,6.53
2017-11-26T13:29:42.243Z,8.57
2017-11-26T13:32:09.703Z,8.23
2017-11-26T13:34:37.163Z,7.43
2017-11-26T13:37:04.732Z,10.35
2017-11-26T13:39:32.200Z,8.07
2017-11-26T13:42:00.436Z,8.18
2017-11-26T13:44:27.903Z,7.18
2017-11-26T13:46:55.460Z,10.65
2017-11-26T13:49:23.082Z,12.32
2017-11-26T13:51:50.537Z,9.20
2017-11-26T13:54:18.002Z,8.30
2017-11-26T13:56:45.462Z,12.37
2017-11-26T13:59:12.919Z,7.90
2017-11-26T14:01:40.406Z,7.80
2017-11-26T14:04:07.962Z,11.07
2017-11-26T14:06:35.534Z,9.68
2017-11-26T14:09:03.031Z,11.73
2017-11-26T14:11:30.490Z,8.07
2017-11-26T14:13:57.958Z,7.07
2017-11-26T14:16:25.427Z,9.30
2017-11-26T14:18:52.914Z,8.70
2017-11-26T14:21:20.387Z,7.60
2017-11-26T14:23:47.842Z,12.48
2017-11-26T14:26:16.075Z,6.45
2017-11-26T14:28:43.540Z,5.68
2017-11-26T14:31:10.991Z,9.35
2017-11-26T14:33:38.525Z,11.40
2017-11-26T14:36:05.997Z,10.20
2017-11-26T14:38:33.451Z,7.37
2017-11-26T14:41:00.923Z,8.25
2017-11-26T14:43:28.379Z,8.93
2017-11-26T14:45:55.967Z,8.05
2017-11-26T14:48:23.427Z,9.02
2017-11-26T14:50:51.691Z,11.68
2017-11-26T14:53:19.508Z,8.45
2017-11-26T14:55:47.115Z,8.90
2017-11-26T14:58:14.588Z,7.05
2017-11-26T15:00:42.847Z,11.60
2017-11-26T15:03:10.303Z,8.23
2017-11-26T15:05:37.766Z,10.32
2017-11-26T15:08:05.229Z,9.82
2017-11-26T15:10:33.486Z,9.48
2017-11-26T15:13:00.955Z,9.02
2017-11-26T15:15:28.414Z,7.45
2017-11-26T15:17:55.969Z,5.32
2017-11-26T15:20:24.938Z,9.13
2017-11-26T15:22:52.528Z,6.85
2017-11-26T15:25:21.161Z,6.45
2017-11-26T15:27:48.623Z,9.35
2017-11-26T15:30:16.088Z,7.57
2017-11-26T15:32:43.542Z,4.50
2017-11-26T15:35:11.040Z,5.90
2017-11-26T15:37:38.522Z,7.50
2017-11-26T15:40:05.978Z,5.78
2017-11-26T15:42:33.499Z,6.55
2017-11-26T15:45:00.966Z,10.35
2017-11-26T15:47:29.294Z,7.22
2017-11-26T15:49:56.771Z,5.97
2017-11-26T15:52:24.228Z,6.07
2017-11-26T15:54:51.785Z,6.68
2017-11-26T15:57:19.261Z,6.53
2017-11-26T15:59:46.976Z,6.00
2017-11-26T16:02:14.575Z,4.40
2017-11-26T16:04:42.055Z,8.00
2017-11-26T16:07:10.281Z,10.95
2017-11-26T16:09:37.739Z,9.30
2017-11-26T16:12:05.229Z,8.27
2017-11-26T16:14:32.695Z,11.88
2017-11-26T16:17:00.940Z,5.70
2017-11-26T16:19:28.395Z,7.03
2017-11-26T16:21:55.858Z,7.75
2017-11-26T16:24:23.314Z,6.72
2017-11-26T16:26:50.786Z,9.85
2017-11-26T16:29:19.023Z,4.30
2017-11-26T16:31:46.555Z,11.63
2017-11-26T16:34:14.336Z,12.50
2017-11-26T16:36:43.174Z,7.47
2017-11-26T16:39:10.626Z,5.07
2017-11-26T16:41:38.112Z,8.93
2017-11-26T16:44:06.335Z,7.82
2017-11-26T16:46:33.811Z,5.95
2017-11-26T16:49:01.270Z,8.02
2017-11-26T16:51:28.726Z,11.30
2017-11-26T16:53:56.238Z,9.63
2017-11-26T16:56:23.698Z,17.17
2017-11-26T16:58:51.166Z,10.40
2017-11-26T17:01:18.623Z,9.85
2017-11-26T17:03:46.087Z,9.65
2017-11-26T17:06:13.545Z,9.38
2017-11-26T17:08:41.010Z,11.25
2017-11-26T17:11:08.472Z,8.32
2017-11-26T17:13:36.038Z,7.93
2017-11-26T17:16:03.655Z,14.55
2017-11-26T17:18:31.147Z,8.95
2017-11-26T17:20:58.597Z,8.98
2017-11-26T17:23:26.074Z,9.70
2017-11-26T17:25:53.545Z,12.10
2017-11-26T17:28:21.779Z,14.80
2017-11-26T17:30:49.246Z,11.12
2017-11-26T17:33:16.715Z,13.65
2017-11-26T17:35:44.269Z,13.32
2017-11-26T17:38:11.828Z,12.20
2017-11-26T17:40:39.277Z,8.75
2017-11-26T17:43:06.764Z,11.55
2017-11-26T17:45:35.009Z,6.15
2017-11-26T17:48:02.462Z,11.77
2017-11-26T17:50:30.020Z,27.55
2017-11-26T17:52:57.494Z,10.73
2017-11-26T17:55:24.986Z,10.27
2017-11-26T17:57:52.498Z,12.27
2017-11-26T18:00:19.955Z,10.77
2017-11-26T18:02:47.419Z,10.80
2017-11-26T18:05:15.007Z,11.80
2017-11-26T18:07:43.321Z,9.18
2017-11-26T18:10:10.792Z,9.90
2017-11-26T18:12:38.262Z,10.68
2017-11-26T18:15:05.830Z,16.00
2017-11-26T18:17:33.291Z,9.68
2017-11-26T18:20:00.746Z,7.53
2017-11-26T18:22:28.304Z,9.05
2017-11-26T18:24:55.862Z,10.05
2017-11-26T18:27:23.336Z,10.57
2017-11-26T18:29:51.606Z,9.55
2017-11-26T18:32:19.086Z,12.10
2017-11-26T18:34:46.550Z,8.38
2017-11-26T18:37:14.008Z,7.10
2017-11-26T18:39:41.518Z,15.52
2017-11-26T18:42:09.043Z,14.93
2017-11-26T18:44:36.498Z,10.07
2017-11-26T18:47:04.021Z,12.85
2017-11-26T18:49:31.604Z,8.80
2017-11-26T18:51:59.062Z,9.35
2017-11-26T18:54:26.534Z,10.85
2017-11-26T18:56:54.000Z,12.57
2017-11-26T18:59:21.560Z,12.63
2017-11-26T19:01:49.141Z,9.20
2017-11-26T19:04:16.607Z,8.10
2017-11-26T19:06:44.070Z,7.72
2017-11-26T19:09:12.333Z,10.38
2017-11-26T19:11:39.792Z,9.77
2017-11-26T19:14:07.344Z,11.75
2017-11-26T19:16:34.907Z,13.00
2017-11-26T19:19:03.162Z,11.90
2017-11-26T19:21:30.747Z,14.02
2017-11-26T19:23:58.226Z,8.40
2017-11-26T19:26:25.701Z,8.60
2017-11-26T19:28:53.162Z,11.85
2017-11-26T19:31:20.722Z,9.32
2017-11-26T19:33:48.237Z,7.80
2017-11-26T19:36:16.478Z,13.57
2017-11-26T19:38:43.957Z,14.48
2017-11-26T19:41:12.246Z,7.60
2017-11-26T19:43:40.484Z,10.38
2017-11-26T19:46:07.972Z,12.00
2017-11-26T19:48:36.271Z,8.45
2017-11-26T19:51:04.499Z,8.23
2017-11-26T19:53:31.987Z,10.68
2017-11-26T19:56:00.224Z,9.85
2017-11-26T19:58:34.359Z,9.68
2017-11-26T20:01:01.857Z,10.63
2017-11-26T20:03:29.374Z,13.50
2017-11-26T20:05:57.603Z,14.68
2017-11-26T20:08:25.067Z,9.63
2017-11-26T20:10:52.530Z,17.92
2017-11-26T20:13:19.998Z,7.93
2017-11-26T20:15:47.533Z,6.72
2017-11-26T20:18:14.994Z,10.77
2017-11-26T20:20:42.499Z,6.65
2017-11-26T20:23:10.770Z,6.87
2017-11-26T20:25:39.045Z,12.48
2017-11-26T20:28:06.515Z,8.55
2017-11-26T20:30:34.084Z,9.55
2017-11-26T20:33:01.704Z,12.63
2017-11-26T20:35:29.165Z,8.50
2017-11-26T20:37:56.629Z,9.60
2017-11-26T20:40:24.251Z,14.45
2017-11-26T20:42:51.756Z,8.10
2017-11-26T20:45:19.286Z,7.62
2017-11-26T20:47:46.803Z,9.18
2017-11-26T20:50:14.378Z,8.85
2017-11-26T20:52:41.838Z,7.90
2017-11-26T20:55:09.314Z,7.28
2017-11-26T20:57:36.776Z,11.70
2017-11-26T21:00:04.267Z,9.40
2017-11-26T21:02:31.747Z,6.68
2017-11-26T21:04:59.270Z,13.50
2017-11-26T21:07:27.547Z,10.48
2017-11-26T21:09:55.027Z,10.93
2017-11-26T21:12:23.275Z,7.68
2017-11-26T21:14:50.826Z,13.15
2017-11-26T21:17:18.295Z,12.57
2017-11-26T21:19:45.854Z,11.90
2017-11-26T21:22:13.315Z,9.68
2017-11-26T21:24:40.835Z,8.50
2017-11-26T21:27:08.294Z,6.50
2017-11-26T21:29:35.757Z,9.73
2017-11-26T21:32:03.215Z,10.60
2017-11-26T21:34:30.671Z,8.88
2017-11-26T21:36:58.144Z,7.90
2017-11-26T21:39:25.616Z,8.27
2017-11-26T21:41:53.163Z,13.48
2017-11-26T21:44:20.622Z,8.95
2017-11-26T21:46:48.088Z,8.25
2017-11-26T21:49:15.550Z,8.07
2017-11-26T21:51:43.775Z,8.75
2017-11-26T21:54:11.235Z,11.98
2017-11-26T21:56:38.703Z,11.43
2017-11-26T21:59:06.236Z,10.10
2017-11-26T22:01:33.697Z,10.25
2017-11-26T22:04:01.340Z,8.68
2017-11-26T22:06:28.853Z,10.20
2017-11-26T22:08:56.311Z,15.10
2017-11-26T22:11:23.874Z,12.48
2017-11-26T22:13:51.344Z,8.35
2017-11-26T22:16:19.575Z,14.10
2017-11-26T22:18:47.041Z,13.05
2017-11-26T22:21:14.503Z,10.77
2017-11-26T22:23:42.033Z,7.80
2017-11-26T22:26:09.525Z,9.15
2017-11-26T22:28:36.991Z,7.35
2017-11-26T22:31:04.454Z,8.70
2017-11-26T22:33:31.998Z,10.45
2017-11-26T22:35:59.468Z,13.05
2017-11-26T22:38:27.943Z,7.80
2017-11-26T22:40:55.503Z,12.37
2017-11-26T22:43:23.115Z,14.65
2017-11-26T22:45:50.611Z,11.88
2017-11-26T22:48:19.663Z,12.32
2017-11-26T22:50:48.669Z,9.25
2017-11-26T22:53:16.135Z,11.07
2017-11-26T22:55:43.674Z,10.13
2017-11-26T22:58:11.131Z,10.55
2017-11-26T23:00:38.797Z,9.38
2017-11-26T23:03:06.299Z,12.63
2017-11-26T23:05:33.851Z,9.65
2017-11-26T23:08:01.471Z,14.25
2017-11-26T23:10:28.986Z,9.63
2017-11-26T23:12:57.207Z,9.30
2017-11-26T23:15:24.677Z,11.73
2017-11-26T23:17:52.212Z,11.10
2017-11-26T23:20:19.772Z,10.88
2017-11-26T23:22:47.230Z,11.35
2017-11-26T23:25:14.694Z,11.20
2017-11-26T23:27:42.154Z,13.65
2017-11-26T23:30:09.610Z,10.43
2017-11-26T23:32:37.065Z,7.93
2017-11-26T23:35:04.524Z,13.68
2017-11-26T23:37:32.023Z,11.38
2017-11-26T23:39:59.719Z,7.75
2017-11-26T23:42:27.174Z,9.88
2017-11-26T23:44:54.877Z,10.82
2017-11-26T23:47:22.339Z,9.98
2017-11-26T23:49:49.795Z,9.48
2017-11-26T23:52:17.250Z,12.57
2017-11-26T23:54:44.731Z,9.90
2017-11-26T23:57:12.183Z,9.73
2017-11-26T23:59:39.690Z,7.97
